createdAt,value
2019-03-31T00:01:51.336Z,31.47
2019-03-31T00:04:19.332Z,30.40
2019-03-31T00:06:47.342Z,31.03
2019-03-31T00:09:15.344Z,30.90
2019-03-31T00:11:43.393Z,29.30
2019-03-31T00:14:11.662Z,28.93
2019-03-31T00:16:39.596Z,29.10
2019-03-31T00:19:07.587Z,31.23
2019-03-31T00:21:35.547Z,32.67
2019-03-31T00:24:03.638Z,33.43
2019-03-31T00:26:31.575Z,32.07
2019-03-31T00:28:59.522Z,32.07
2019-03-31T00:31:27.457Z,32.47
2019-03-31T00:33:55.442Z,31.53
2019-03-31T00:36:23.363Z,31.53
2019-03-31T00:38:51.372Z,32.90
2019-03-31T00:41:19.302Z,32.33
2019-03-31T00:43:47.318Z,33.60
2019-03-31T00:46:15.911Z,34.23
2019-03-31T00:48:43.935Z,33.43
2019-03-31T00:51:11.851Z,35.27
2019-03-31T00:53:39.867Z,31.20
2019-03-31T00:56:07.801Z,32.03
2019-03-31T00:58:35.827Z,32.63
2019-03-31T01:01:35.413Z,31.97
2019-03-31T01:03:51.586Z,34.30
2019-03-31T01:06:21.427Z,36.07
2019-03-31T01:08:49.429Z,34.70
2019-03-31T01:11:21.807Z,35.93
2019-03-31T01:13:49.808Z,39.53
2019-03-31T01:16:18.341Z,39.73
2019-03-31T01:18:46.307Z,38.13
2019-03-31T01:21:14.447Z,37.17
2019-03-31T01:23:42.527Z,34.50
2019-03-31T01:26:10.777Z,34.00
2019-03-31T01:28:38.807Z,35.67
2019-03-31T01:31:06.862Z,38.43
2019-03-31T01:33:35.260Z,39.93
2019-03-31T01:36:03.413Z,37.73
2019-03-31T01:38:31.497Z,37.10
2019-03-31T01:40:59.452Z,39.53
2019-03-31T01:43:29.699Z,39.30
2019-03-31T01:45:58.420Z,38.60
2019-03-31T01:48:26.406Z,37.73
2019-03-31T01:50:54.332Z,39.93
2019-03-31T01:53:22.307Z,39.37
2019-03-31T01:55:50.235Z,39.93
2019-03-31T01:58:18.273Z,38.77
2019-03-31T02:00:51.322Z,39.87
2019-03-31T02:03:19.315Z,41.07
2019-03-31T02:05:47.232Z,38.40
2019-03-31T02:08:15.270Z,36.20
2019-03-31T02:10:43.243Z,36.73
2019-03-31T02:13:11.186Z,40.43
2019-03-31T02:15:39.207Z,40.70
2019-03-31T02:18:07.247Z,40.30
2019-03-31T02:20:35.221Z,40.33
2019-03-31T02:23:03.256Z,41.13
2019-03-31T02:25:31.287Z,41.13
2019-03-31T02:27:59.231Z,39.27
2019-03-31T02:30:27.564Z,38.07
2019-03-31T02:32:55.505Z,39.50
2019-03-31T02:35:23.487Z,42.47
2019-03-31T02:37:51.416Z,36.63
2019-03-31T02:40:19.392Z,38.67
2019-03-31T02:42:47.326Z,40.83
2019-03-31T02:45:15.320Z,39.80
2019-03-31T02:47:43.233Z,39.07
2019-03-31T02:50:17.300Z,39.03
2019-03-31T02:52:45.238Z,40.10
2019-03-31T02:55:13.220Z,42.30
2019-03-31T02:57:41.387Z,42.23
2019-03-31T03:00:09.463Z,40.37
2019-03-31T03:02:42.214Z,41.47
2019-03-31T03:05:19.588Z,42.13
2019-03-31T03:07:39.951Z,41.63
2019-03-31T03:10:08.784Z,40.70
2019-03-31T03:12:39.506Z,41.73
2019-03-31T03:15:07.604Z,42.47
2019-03-31T03:17:35.548Z,45.10
2019-03-31T03:20:03.834Z,45.27
2019-03-31T03:22:31.742Z,43.60
2019-03-31T03:24:59.733Z,45.73
2019-03-31T03:27:27.677Z,42.53
2019-03-31T03:29:56.150Z,45.20
2019-03-31T03:32:24.138Z,45.83
2019-03-31T03:34:52.222Z,43.60
2019-03-31T03:37:20.174Z,45.17
2019-03-31T03:39:48.154Z,44.97
2019-03-31T03:42:16.104Z,45.13
2019-03-31T03:44:44.035Z,43.77
2019-03-31T03:47:12.029Z,44.13
2019-03-31T03:49:40.046Z,43.40
2019-03-31T03:52:08.162Z,45.87
2019-03-31T03:54:36.178Z,46.27
2019-03-31T03:57:05.199Z,46.60
2019-03-31T03:59:33.132Z,46.37
2019-03-31T04:02:01.123Z,45.17
2019-03-31T04:04:29.069Z,45.53
2019-03-31T04:06:57.089Z,46.50
2019-03-31T04:09:25.108Z,43.93
2019-03-31T04:11:53.083Z,44.60
2019-03-31T04:14:21.019Z,44.40
2019-03-31T04:16:48.985Z,42.30
2019-03-31T04:19:16.928Z,43.57
2019-03-31T04:21:44.910Z,45.70
2019-03-31T04:24:12.817Z,44.30
2019-03-31T04:26:40.782Z,42.20
2019-03-31T04:29:08.725Z,44.73
2019-03-31T04:31:36.702Z,46.13
2019-03-31T04:34:04.651Z,43.27
2019-03-31T04:36:32.718Z,43.07
2019-03-31T04:39:00.947Z,41.70
2019-03-31T04:41:29.157Z,41.07
2019-03-31T04:43:57.087Z,41.50
2019-03-31T04:46:25.067Z,43.97
2019-03-31T04:48:53.006Z,42.87
2019-03-31T04:51:20.971Z,43.73
2019-03-31T04:53:48.962Z,42.47
2019-03-31T04:56:16.962Z,43.77
2019-03-31T04:58:45.007Z,40.60
2019-03-31T05:01:12.966Z,43.30
2019-03-31T05:03:40.917Z,41.13
2019-03-31T05:06:08.922Z,42.57
2019-03-31T05:08:36.930Z,41.67
2019-03-31T05:11:04.997Z,45.90
2019-03-31T05:13:32.962Z,45.60
2019-03-31T05:16:00.977Z,43.13
2019-03-31T05:18:29.051Z,43.27
2019-03-31T05:20:57.037Z,45.87
2019-03-31T05:23:24.973Z,45.20
2019-03-31T05:25:52.957Z,41.30
2019-03-31T05:28:20.903Z,35.03
2019-03-31T05:30:48.947Z,46.37
2019-03-31T05:33:16.964Z,42.77
2019-03-31T05:35:44.931Z,40.03
2019-03-31T05:38:12.952Z,44.90
2019-03-31T05:40:40.978Z,36.10
2019-03-31T05:43:08.974Z,35.53
2019-03-31T05:45:36.951Z,34.37
2019-03-31T05:48:04.977Z,35.27
2019-03-31T05:50:32.892Z,32.27
2019-03-31T05:53:00.897Z,36.10
2019-03-31T05:55:28.826Z,35.70
2019-03-31T05:57:57.617Z,35.50
2019-03-31T06:00:41.883Z,35.07
2019-03-31T06:03:09.903Z,34.07
2019-03-31T06:05:37.851Z,34.37
2019-03-31T06:08:05.914Z,36.13
2019-03-31T06:10:33.826Z,31.67
2019-03-31T06:13:01.879Z,33.00
2019-03-31T06:15:30.448Z,32.90
2019-03-31T06:17:58.427Z,34.17
2019-03-31T06:20:26.386Z,32.57
2019-03-31T06:22:54.453Z,31.50
2019-03-31T06:25:22.534Z,31.57
2019-03-31T06:27:50.515Z,30.77
2019-03-31T06:30:18.619Z,32.70
2019-03-31T06:32:46.667Z,27.70
2019-03-31T06:35:14.637Z,27.37
2019-03-31T06:37:42.607Z,28.10
2019-03-31T06:40:10.652Z,28.07
2019-03-31T06:42:38.656Z,28.60
2019-03-31T06:45:07.188Z,28.03
2019-03-31T06:47:35.187Z,28.80
2019-03-31T06:50:03.903Z,28.03
2019-03-31T06:52:31.971Z,27.40
2019-03-31T06:54:59.887Z,27.10
2019-03-31T06:57:27.933Z,26.67
2019-03-31T06:59:55.902Z,27.90
2019-03-31T07:02:23.931Z,27.17
2019-03-31T07:05:00.804Z,26.60
2019-03-31T07:07:23.859Z,26.57
2019-03-31T07:09:51.572Z,24.87
2019-03-31T07:12:19.572Z,27.97
2019-03-31T07:14:47.572Z,26.33
2019-03-31T07:17:15.636Z,28.77
2019-03-31T07:19:43.686Z,25.50
2019-03-31T07:22:11.722Z,26.57
2019-03-31T07:24:39.695Z,27.03
2019-03-31T07:27:07.759Z,25.30
2019-03-31T07:29:35.692Z,24.90
2019-03-31T07:32:04.111Z,24.17
2019-03-31T07:34:32.156Z,23.53
2019-03-31T07:37:00.132Z,25.13
2019-03-31T07:39:29.572Z,24.80
2019-03-31T07:41:59.762Z,23.23
2019-03-31T07:44:28.171Z,24.47
2019-03-31T07:46:58.331Z,23.73
2019-03-31T07:49:26.368Z,23.90
2019-03-31T07:51:54.293Z,22.90
2019-03-31T07:54:22.902Z,20.30
2019-03-31T07:56:51.725Z,19.77
2019-03-31T07:59:19.761Z,22.70
2019-03-31T08:01:48.381Z,21.70
2019-03-31T08:04:16.387Z,21.57
2019-03-31T08:06:44.357Z,19.30
2019-03-31T08:09:12.418Z,19.53
2019-03-31T08:11:40.366Z,19.87
2019-03-31T08:14:08.487Z,17.23
2019-03-31T08:16:36.462Z,16.57
2019-03-31T08:19:04.436Z,15.60
2019-03-31T08:21:32.392Z,12.30
2019-03-31T08:24:00.477Z,12.70
2019-03-31T08:26:28.840Z,14.40
2019-03-31T08:28:58.597Z,12.57
2019-03-31T08:31:26.727Z,13.63
2019-03-31T08:33:54.717Z,10.87
2019-03-31T08:36:22.667Z,9.63
2019-03-31T08:38:50.687Z,8.80
2019-03-31T08:41:18.769Z,8.20
2019-03-31T08:43:47.167Z,9.77
2019-03-31T08:46:15.601Z,8.07
2019-03-31T08:48:44.245Z,8.50
2019-03-31T08:51:12.257Z,6.03
2019-03-31T08:53:42.481Z,6.67
2019-03-31T08:56:10.432Z,6.13
2019-03-31T08:58:39.108Z,6.50
2019-03-31T09:01:10.826Z,5.60
2019-03-31T09:03:38.857Z,5.90
2019-03-31T09:06:06.793Z,4.90
2019-03-31T09:08:34.786Z,4.90
2019-03-31T09:11:04.354Z,5.17
2019-03-31T09:13:32.317Z,5.60
2019-03-31T09:16:00.429Z,5.97
2019-03-31T09:18:28.438Z,4.93
2019-03-31T09:20:56.342Z,5.33
2019-03-31T09:23:24.355Z,6.77
2019-03-31T09:25:53.293Z,6.97
2019-03-31T09:28:21.267Z,6.33
2019-03-31T09:30:49.392Z,6.27
2019-03-31T09:33:17.362Z,6.80
2019-03-31T09:35:45.327Z,7.70
2019-03-31T09:38:13.328Z,7.73
2019-03-31T09:40:41.349Z,8.17
2019-03-31T09:43:09.455Z,9.00
2019-03-31T09:45:37.535Z,7.80
2019-03-31T09:48:05.492Z,7.40
2019-03-31T09:50:33.512Z,6.93
2019-03-31T09:53:01.552Z,6.30
2019-03-31T09:55:29.547Z,6.40
2019-03-31T09:57:57.622Z,7.17
2019-03-31T10:00:45.764Z,6.37
2019-03-31T10:03:13.853Z,8.63
2019-03-31T10:05:43.168Z,7.57
2019-03-31T10:08:11.197Z,6.90
2019-03-31T10:10:39.462Z,6.77
2019-03-31T10:13:07.607Z,6.43
2019-03-31T10:15:35.769Z,6.80
2019-03-31T10:18:03.812Z,6.97
2019-03-31T10:20:32.192Z,7.57
2019-03-31T10:23:00.153Z,7.93
2019-03-31T10:25:28.179Z,7.60
2019-03-31T10:27:56.217Z,7.07
2019-03-31T10:30:42.525Z,8.37
2019-03-31T10:33:10.473Z,9.23
2019-03-31T10:35:38.577Z,8.50
2019-03-31T10:38:08.217Z,7.80
2019-03-31T10:40:36.241Z,7.13
2019-03-31T10:43:04.337Z,7.77
2019-03-31T10:45:32.358Z,8.43
2019-03-31T10:48:00.335Z,9.20
2019-03-31T10:50:28.321Z,8.40
2019-03-31T10:52:56.664Z,7.83
2019-03-31T10:55:27.062Z,8.03
2019-03-31T10:57:55.262Z,7.73
2019-03-31T11:00:34.804Z,6.83
2019-03-31T11:03:03.666Z,7.70
2019-03-31T11:05:31.812Z,6.43
2019-03-31T11:07:59.871Z,6.63
2019-03-31T11:10:28.655Z,6.23
2019-03-31T11:12:56.632Z,6.07
2019-03-31T11:15:25.221Z,6.27
2019-03-31T11:17:53.446Z,7.10
2019-03-31T11:20:21.492Z,7.60
2019-03-31T11:22:56.907Z,6.17
2019-03-31T11:25:29.125Z,6.67
2019-03-31T11:27:54.896Z,6.63
2019-03-31T11:30:22.986Z,6.50
2019-03-31T11:32:50.928Z,6.07
2019-03-31T11:35:18.967Z,4.30
2019-03-31T11:37:46.974Z,3.57
2019-03-31T11:40:15.285Z,4.23
2019-03-31T11:42:43.684Z,3.83
2019-03-31T11:45:12.118Z,4.13
2019-03-31T11:47:40.217Z,3.70
2019-03-31T11:50:11.443Z,4.20
2019-03-31T11:52:40.021Z,4.60
2019-03-31T11:55:08.290Z,5.03
2019-03-31T11:57:37.376Z,4.10
2019-03-31T12:00:08.587Z,4.20
2019-03-31T12:02:36.708Z,3.57
2019-03-31T12:05:06.329Z,3.93
2019-03-31T12:07:46.003Z,3.33
2019-03-31T12:10:05.466Z,3.17
2019-03-31T12:12:33.867Z,3.27
2019-03-31T12:15:01.973Z,3.10
2019-03-31T12:17:30.066Z,3.30
2019-03-31T12:19:58.099Z,3.33
2019-03-31T12:22:26.217Z,3.00
2019-03-31T12:24:54.251Z,3.70
2019-03-31T12:27:22.371Z,3.40
2019-03-31T12:29:50.444Z,3.57
2019-03-31T12:32:18.731Z,4.13
2019-03-31T12:34:46.787Z,4.37
2019-03-31T12:37:14.861Z,3.43
2019-03-31T12:39:42.987Z,3.00
2019-03-31T12:42:11.071Z,3.37
2019-03-31T12:44:39.437Z,4.17
2019-03-31T12:47:07.611Z,3.30
2019-03-31T12:49:35.850Z,3.17
2019-03-31T12:52:03.950Z,3.63
2019-03-31T12:54:32.096Z,3.40
2019-03-31T12:57:00.430Z,3.00
2019-03-31T12:59:28.542Z,3.30
2019-03-31T13:01:56.732Z,3.27
2019-03-31T13:04:25.058Z,3.47
2019-03-31T13:06:53.406Z,3.20
2019-03-31T13:09:21.591Z,3.73
2019-03-31T13:11:50.537Z,3.20
2019-03-31T13:14:18.951Z,3.30
2019-03-31T13:16:49.546Z,2.70
2019-03-31T13:19:17.697Z,4.17
2019-03-31T13:21:45.849Z,3.30
2019-03-31T13:24:14.035Z,3.00
2019-03-31T13:26:42.159Z,2.93
2019-03-31T13:29:10.404Z,2.60
2019-03-31T13:31:38.702Z,2.10
2019-03-31T13:34:09.042Z,2.80
2019-03-31T13:36:37.093Z,2.47
2019-03-31T13:39:07.391Z,2.63
2019-03-31T13:41:35.492Z,3.03
2019-03-31T13:44:03.772Z,2.90
2019-03-31T13:46:32.006Z,3.00
2019-03-31T13:49:00.241Z,3.27
2019-03-31T13:51:28.282Z,2.90
2019-03-31T13:53:56.382Z,2.33
2019-03-31T13:56:24.422Z,2.93
2019-03-31T13:58:52.856Z,2.67
2019-03-31T14:01:21.118Z,2.90
2019-03-31T14:03:49.357Z,3.17
2019-03-31T14:06:17.752Z,3.70
2019-03-31T14:08:45.959Z,3.80
2019-03-31T14:11:14.417Z,3.40
2019-03-31T14:13:42.752Z,3.67
2019-03-31T14:16:10.988Z,3.73
2019-03-31T14:18:39.307Z,3.85
2019-03-31T14:21:07.667Z,5.43
2019-03-31T14:23:36.152Z,4.10
2019-03-31T14:26:04.287Z,3.67
2019-03-31T14:28:32.500Z,3.73
2019-03-31T14:31:00.914Z,3.83
2019-03-31T14:33:29.186Z,3.27
2019-03-31T14:35:57.670Z,3.33
2019-03-31T14:38:39.589Z,3.57
2019-03-31T14:40:56.442Z,3.03
2019-03-31T14:43:27.835Z,3.87
2019-03-31T14:45:55.032Z,3.07
2019-03-31T14:48:23.346Z,4.07
2019-03-31T14:50:51.502Z,3.77
2019-03-31T14:53:19.883Z,3.03
2019-03-31T14:55:48.293Z,3.27
2019-03-31T14:58:16.717Z,4.17
2019-03-31T15:00:44.993Z,3.67
2019-03-31T15:03:13.463Z,3.03
2019-03-31T15:05:41.951Z,2.87
2019-03-31T15:08:10.422Z,2.37
2019-03-31T15:10:38.847Z,2.53
2019-03-31T15:13:07.593Z,2.60
2019-03-31T15:15:36.502Z,2.57
2019-03-31T15:18:05.155Z,2.57
2019-03-31T15:20:33.730Z,2.00
2019-03-31T15:23:02.393Z,2.43
2019-03-31T15:25:30.729Z,2.10
2019-03-31T15:27:59.457Z,2.40
2019-03-31T15:30:27.970Z,2.80
2019-03-31T15:32:56.207Z,3.10
2019-03-31T15:35:24.782Z,2.40
2019-03-31T15:37:53.320Z,2.70
2019-03-31T15:40:21.797Z,2.67
2019-03-31T15:42:50.322Z,2.60
2019-03-31T15:45:18.883Z,2.17
2019-03-31T15:47:47.361Z,2.50
2019-03-31T15:50:15.872Z,2.53
2019-03-31T15:52:44.838Z,2.47
2019-03-31T15:55:13.527Z,2.80
2019-03-31T15:57:42.282Z,2.40
2019-03-31T16:00:11.225Z,2.43
2019-03-31T16:02:39.881Z,2.60
2019-03-31T16:05:08.830Z,2.63
2019-03-31T16:07:37.227Z,2.73
2019-03-31T16:10:06.057Z,2.70
2019-03-31T16:12:34.013Z,2.83
2019-03-31T16:15:02.007Z,2.37
2019-03-31T16:17:30.067Z,2.10
2019-03-31T16:19:57.854Z,2.10
2019-03-31T16:22:25.742Z,2.03
2019-03-31T16:24:56.312Z,2.07
2019-03-31T16:27:24.337Z,2.07
2019-03-31T16:29:52.370Z,1.83
2019-03-31T16:32:20.263Z,1.87
2019-03-31T16:34:48.422Z,2.53
2019-03-31T16:37:16.288Z,2.37
2019-03-31T16:39:44.202Z,1.87
2019-03-31T16:42:12.099Z,2.37
2019-03-31T16:44:40.146Z,2.77
2019-03-31T16:47:08.107Z,2.23
2019-03-31T16:49:36.042Z,1.60
2019-03-31T16:52:03.870Z,2.00
2019-03-31T16:54:31.807Z,2.20
2019-03-31T16:56:59.837Z,2.47
2019-03-31T16:59:27.717Z,2.37
2019-03-31T17:01:55.642Z,3.27
2019-03-31T17:04:23.617Z,2.40
2019-03-31T17:06:51.447Z,2.20
2019-03-31T17:09:19.367Z,2.27
2019-03-31T17:11:49.707Z,2.10
2019-03-31T17:14:17.578Z,2.27
2019-03-31T17:16:45.419Z,2.43
2019-03-31T17:19:13.727Z,2.20
2019-03-31T17:21:41.666Z,2.43
2019-03-31T17:24:10.412Z,2.60
2019-03-31T17:26:38.422Z,2.30
2019-03-31T17:29:06.512Z,2.10
2019-03-31T17:31:34.982Z,1.97
2019-03-31T17:34:03.090Z,1.90
2019-03-31T17:36:31.028Z,2.00
2019-03-31T17:39:00.201Z,1.40
2019-03-31T17:41:28.267Z,1.60
2019-03-31T17:43:56.332Z,1.70
2019-03-31T17:46:24.232Z,1.80
2019-03-31T17:48:52.172Z,2.00
2019-03-31T17:51:20.307Z,1.60
2019-03-31T17:53:50.917Z,2.10
2019-03-31T17:56:18.854Z,1.90
2019-03-31T17:58:47.057Z,2.17
2019-03-31T18:01:17.822Z,1.40
2019-03-31T18:03:45.879Z,1.73
2019-03-31T18:06:13.971Z,2.00
2019-03-31T18:08:42.516Z,1.77
2019-03-31T18:11:10.883Z,1.70
2019-03-31T18:13:38.787Z,1.90
2019-03-31T18:16:06.817Z,1.40
2019-03-31T18:18:34.857Z,1.77
2019-03-31T18:21:02.867Z,1.40
2019-03-31T18:23:30.717Z,1.90
2019-03-31T18:25:58.702Z,1.70
2019-03-31T18:28:26.612Z,1.70
2019-03-31T18:30:54.567Z,2.70
2019-03-31T18:33:23.136Z,2.00
2019-03-31T18:35:51.162Z,1.43
2019-03-31T18:38:19.152Z,2.10
2019-03-31T18:40:47.178Z,2.10
2019-03-31T18:43:15.060Z,1.70
2019-03-31T18:45:43.117Z,1.40
2019-03-31T18:48:11.118Z,1.70
2019-03-31T18:50:38.979Z,2.07
2019-03-31T18:53:08.282Z,1.63
2019-03-31T18:55:45.577Z,2.20
2019-03-31T18:58:25.597Z,1.73
2019-03-31T19:01:04.327Z,1.80
2019-03-31T19:03:47.033Z,1.73
2019-03-31T19:06:37.106Z,2.40
2019-03-31T19:09:25.102Z,2.03
2019-03-31T19:12:11.528Z,1.57
2019-03-31T19:14:58.947Z,1.63
2019-03-31T19:18:04.725Z,2.47
2019-03-31T19:20:51.002Z,2.10
2019-03-31T19:23:37.909Z,1.90
2019-03-31T19:26:26.563Z,2.00
2019-03-31T19:29:26.192Z,1.87
2019-03-31T19:32:25.947Z,2.37
2019-03-31T19:35:12.327Z,2.10
2019-03-31T19:38:08.767Z,2.10
2019-03-31T19:41:03.971Z,1.63
2019-03-31T19:43:34.215Z,2.03
2019-03-31T19:46:11.443Z,2.40
2019-03-31T19:49:01.061Z,1.77
2019-03-31T19:52:06.475Z,2.57
2019-03-31T19:54:54.238Z,1.80
2019-03-31T19:57:32.021Z,2.17
2019-03-31T20:00:15.397Z,1.60
2019-03-31T20:03:11.667Z,1.80
2019-03-31T20:06:17.702Z,2.00
2019-03-31T20:08:57.403Z,1.77
2019-03-31T20:11:35.242Z,1.23
2019-03-31T20:14:25.077Z,1.87
2019-03-31T20:17:15.042Z,1.40
2019-03-31T20:19:54.717Z,1.80
2019-03-31T20:22:57.142Z,1.80
2019-03-31T20:25:44.466Z,1.80
2019-03-31T20:28:31.172Z,2.00
2019-03-31T20:31:11.200Z,1.87
2019-03-31T20:34:13.620Z,1.67
2019-03-31T20:37:09.967Z,2.13
2019-03-31T20:39:56.502Z,1.73
2019-03-31T20:42:41.452Z,1.60
2019-03-31T20:45:09.183Z,2.00
2019-03-31T20:47:37.061Z,2.00
2019-03-31T20:50:05.482Z,1.77
2019-03-31T20:52:33.362Z,1.90
2019-03-31T20:55:15.358Z,2.00
2019-03-31T20:57:30.932Z,2.63
2019-03-31T20:59:58.676Z,2.33
2019-03-31T21:02:26.576Z,2.13
2019-03-31T21:04:54.337Z,1.87
2019-03-31T21:07:22.252Z,1.77
2019-03-31T21:09:49.977Z,2.90
2019-03-31T21:12:17.842Z,1.90
2019-03-31T21:14:45.677Z,2.00
2019-03-31T21:17:13.511Z,1.70
2019-03-31T21:19:41.167Z,1.50
2019-03-31T21:22:08.771Z,1.97
2019-03-31T21:24:36.768Z,2.00
2019-03-31T21:27:04.346Z,2.13
2019-03-31T21:29:31.946Z,2.23
2019-03-31T21:32:01.816Z,1.30
2019-03-31T21:34:29.287Z,1.83
2019-03-31T21:36:56.876Z,2.13
2019-03-31T21:39:24.337Z,2.20
2019-03-31T21:41:51.891Z,1.60
2019-03-31T21:44:19.453Z,1.70
2019-03-31T21:46:46.982Z,2.40
2019-03-31T21:49:14.653Z,2.10
2019-03-31T21:51:42.147Z,2.33
2019-03-31T21:54:12.590Z,2.00
2019-03-31T21:56:39.964Z,2.00
2019-03-31T21:59:09.091Z,2.27
2019-03-31T22:01:36.951Z,1.70
2019-03-31T22:04:04.542Z,2.07
2019-03-31T22:06:32.091Z,2.63
2019-03-31T22:08:59.662Z,2.17
2019-03-31T22:11:27.282Z,1.77
2019-03-31T22:13:54.827Z,2.13
2019-03-31T22:16:22.326Z,1.57
2019-03-31T22:18:49.925Z,1.60
2019-03-31T22:21:17.532Z,2.07
2019-03-31T22:23:57.371Z,1.60
2019-03-31T22:26:14.441Z,1.63
2019-03-31T22:28:42.058Z,1.70
2019-03-31T22:31:09.555Z,1.93
2019-03-31T22:33:37.167Z,1.83
2019-03-31T22:36:23.761Z,2.00
2019-03-31T22:38:52.461Z,2.63
2019-03-31T22:41:20.042Z,1.37
2019-03-31T22:43:48.462Z,1.83
2019-03-31T22:46:15.992Z,2.10
2019-03-31T22:48:43.667Z,1.67
2019-03-31T22:51:11.253Z,1.20
2019-03-31T22:53:38.812Z,1.77
2019-03-31T22:56:07.383Z,1.77
2019-03-31T22:58:35.002Z,1.77
2019-03-31T23:01:02.728Z,1.97
2019-03-31T23:03:30.521Z,1.50
2019-03-31T23:05:58.441Z,1.27
2019-03-31T23:08:26.210Z,1.70
2019-03-31T23:10:53.701Z,1.70
2019-03-31T23:13:21.202Z,1.33
2019-03-31T23:15:48.607Z,1.60
2019-03-31T23:18:17.627Z,1.33
2019-03-31T23:20:45.077Z,1.87
2019-03-31T23:23:12.467Z,1.40
2019-03-31T23:25:39.917Z,1.50
2019-03-31T23:28:07.306Z,1.90
2019-03-31T23:30:34.726Z,1.13
2019-03-31T23:33:02.437Z,2.27
2019-03-31T23:35:29.867Z,2.00
2019-03-31T23:37:57.242Z,1.30
2019-03-31T23:40:26.606Z,1.70
2019-03-31T23:42:53.982Z,1.20
2019-03-31T23:45:21.407Z,1.60
2019-03-31T23:47:48.794Z,1.33
2019-03-31T23:50:16.247Z,1.80
2019-03-31T23:52:43.626Z,1.50
2019-03-31T23:55:11.157Z,1.50
2019-03-31T23:57:39.086Z,1.87
